Time;durP1;ratioP1;P1;durP2;ratioP2;P2;SDS_P1;SDS_P2;PMS_P1;PMS_P2;Temp;Humidity;BMP_temperature;BMP_pressure;BME280_temperature;BME280_humidity;BME280_pressure;Samples;Min_cycle;Max_cycle;Signal;HPM_P1;HPM_P2
2022/09/15 00:01:00;;;;;;;21.10;2.50;;;;;;;18.22;74.83;98266.00;1645770;86;21050;-82
2022/09/15 00:03:28;;;;;;;6.15;1.80;;;;;;;18.49;73.34;98261.92;1639442;87;21003;-81
2022/09/15 00:05:55;;;;;;;5.05;1.80;;;;;;;18.80;72.02;98252.70;1645664;87;20967;-81
2022/09/15 00:08:23;;;;;;;4.47;2.00;;;;;;;19.12;71.11;98252.61;1630883;86;21562;-81
2022/09/15 00:10:58;;;;;;;5.28;1.82;;;;;;;19.34;70.53;98260.63;1643174;87;21499;-82
2022/09/15 00:13:25;;;;;;;4.85;2.10;;;;;;;19.53;69.65;98250.84;1631595;87;20990;-80
2022/09/15 00:15:53;;;;;;;3.98;1.90;;;;;;;19.74;68.48;98249.75;1641232;87;20953;-81
2022/09/15 00:18:20;;;;;;;3.60;1.80;;;;;;;19.95;66.72;98247.24;1637850;87;21038;-85
2022/09/15 00:20:47;;;;;;;5.95;2.10;;;;;;;20.09;66.99;98247.98;1640887;87;21016;-85
2022/09/15 00:23:15;;;;;;;7.90;2.10;;;;;;;20.21;65.88;98249.20;1634713;87;20998;-83
2022/09/15 00:25:49;;;;;;;6.30;2.22;;;;;;;20.29;66.21;98245.11;1645666;87;21022;-81
2022/09/15 00:28:19;;;;;;;5.95;1.95;;;;;;;20.33;65.90;98255.29;1641070;86;21038;-81
2022/09/15 00:30:50;;;;;;;3.85;1.80;;;;;;;20.34;65.86;98256.16;1645875;86;21535;-82
2022/09/15 00:33:17;;;;;;;7.87;2.02;;;;;;;20.36;65.95;98254.23;1639194;87;21015;-83
2022/09/15 00:35:46;;;;;;;7.58;2.12;;;;;;;20.44;65.52;98260.58;1620162;87;21022;-82
2022/09/15 00:38:15;;;;;;;7.17;2.35;;;;;;;20.56;63.94;98273.78;1646000;87;20982;-82
2022/09/15 00:40:53;;;;;;;8.55;1.77;;;;;;;20.73;63.56;98275.09;1623759;87;21046;-81
2022/09/15 00:43:41;;;;;;;7.72;1.90;;;;;;;20.89;62.83;98270.73;1645938;87;21119;-81
2022/09/15 00:46:09;;;;;;;4.83;1.72;;;;;;;21.09;61.85;98284.52;1645989;86;21011;-81
2022/09/15 00:48:58;;;;;;;6.47;1.80;;;;;;;21.28;60.55;98286.48;1645890;87;21555;-80
2022/09/15 00:51:46;;;;;;;4.55;2.10;;;;;;;21.39;60.30;98290.41;1645829;87;21066;-83
2022/09/15 00:54:29;;;;;;;5.47;2.08;;;;;;;21.52;59.93;98290.25;1645923;86;21038;-81
2022/09/15 00:56:59;;;;;;;3.65;1.82;;;;;;;21.62;59.54;98288.52;1646075;87;20994;-83
2022/09/15 00:59:29;;;;;;;6.53;2.08;;;;;;;21.70;59.89;98287.88;1623334;87;21034;-81
2022/09/15 01:02:04;;;;;;;6.83;2.45;;;;;;;21.74;59.81;98293.27;1645892;86;21042;-82
2022/09/15 01:04:31;;;;;;;4.87;2.33;;;;;;;21.75;59.46;98294.13;1645130;87;21081;-81
2022/09/15 01:07:01;;;;;;;3.25;1.98;;;;;;;21.73;59.94;98298.71;1653179;86;21489;-81
2022/09/15 01:09:33;;;;;;;7.28;2.37;;;;;;;21.65;60.38;98295.38;1656121;87;21034;-81
2022/09/15 01:12:01;;;;;;;6.03;2.00;;;;;;;21.52;60.43;98299.52;1656185;86;21034;-81
2022/09/15 01:14:28;;;;;;;2.92;1.62;;;;;;;21.45;60.94;98314.23;1656083;87;21029;-81
2022/09/15 01:17:25;;;;;;;5.83;1.72;;;;;;;21.38;61.19;98295.33;1656192;85;21584;-80
2022/09/15 01:20:46;;;;;;;4.50;2.12;;;;;;;21.29;61.59;98293.92;1656696;87;21054;-80
2022/09/15 01:23:33;;;;;;;5.28;2.30;;;;;;;21.06;62.22;98284.75;1656466;87;21038;-81
2022/09/15 01:26:11;;;;;;;7.35;2.87;;;;;;;20.72;63.80;98287.47;1659992;87;21069;-82
2022/09/15 01:29:23;;;;;;;6.05;2.90;;;;;;;20.54;63.78;98284.94;1660005;87;20991;-83
2022/09/15 01:35:26;;;;;;;5.50;2.52;;;;;;;20.14;65.10;98275.70;1656175;87;21046;-82
2022/09/15 01:38:04;;;;;;;7.78;2.90;;;;;;;19.95;65.32;98276.27;1656246;87;21029;-80
2022/09/15 01:40:36;;;;;;;8.20;3.08;;;;;;;19.82;66.70;98280.33;1656040;87;20990;-79
2022/09/15 01:43:05;;;;;;;8.48;2.92;;;;;;;19.64;67.37;98284.33;1652728;86;20986;-80
2022/09/15 01:45:34;;;;;;;6.80;2.85;;;;;;;19.48;68.28;98285.47;1655947;87;21633;-84
2022/09/15 01:48:04;;;;;;;7.28;3.22;;;;;;;19.38;70.13;98277.89;1655949;87;21057;-81
2022/09/15 01:50:36;;;;;;;5.33;2.45;;;;;;;19.35;69.34;98274.16;1655959;87;20999;-80
2022/09/15 01:53:07;;;;;;;7.80;2.92;;;;;;;19.35;69.09;98267.56;1656004;87;20983;-81
2022/09/15 01:55:39;;;;;;;5.92;2.83;;;;;;;19.31;69.53;98265.28;1655908;86;21022;-82
2022/09/15 01:58:07;;;;;;;7.37;3.60;;;;;;;19.30;69.81;98260.49;1655971;87;21034;-84
2022/09/15 02:00:39;;;;;;;9.25;3.62;;;;;;;19.30;69.83;98264.90;1637035;87;21010;-82
2022/09/15 02:03:17;;;;;;;12.58;2.92;;;;;;;19.30;69.92;98259.62;1655967;87;21034;-82
2022/09/15 02:05:49;;;;;;;7.20;3.08;;;;;;;19.30;69.51;98256.55;1654982;86;21008;-82
2022/09/15 02:08:29;;;;;;;9.35;2.95;;;;;;;19.29;69.33;98254.84;1656819;87;21052;-81
2022/09/15 02:11:07;;;;;;;7.92;3.10;;;;;;;19.28;69.76;98252.70;1655316;86;21035;-81
2022/09/15 02:13:59;;;;;;;4.50;2.55;;;;;;;19.28;69.20;98247.42;1655675;86;21047;-81
2022/09/15 02:16:31;;;;;;;9.40;3.25;;;;;;;19.28;69.55;98246.11;1655989;85;21043;-81
2022/09/15 02:19:39;;;;;;;13.15;2.87;;;;;;;19.30;69.34;98239.41;1655944;87;21011;-83
2022/09/15 02:22:23;;;;;;;7.12;2.67;;;;;;;19.31;69.56;98244.20;1648769;87;20990;-82
2022/09/15 02:25:07;;;;;;;;;;;;;;;19.32;69.29;98236.19;1641947;87;21508;-82
2022/09/15 02:27:46;;;;;;;7.47;3.00;;;;;;;19.33;69.67;98238.33;1641692;87;20846;-83
2022/09/15 02:30:13;;;;;;;9.13;4.35;;;;;;;19.33;68.82;98236.53;1638273;87;21008;-85
2022/09/15 02:32:52;;;;;;;11.60;3.65;;;;;;;19.32;68.98;98236.19;1643273;86;20957;-85
2022/09/15 02:35:20;;;;;;;8.20;3.58;;;;;;;19.34;68.85;98229.00;1642149;87;21024;-84
2022/09/15 02:37:48;;;;;;;7.50;3.15;;;;;;;19.35;69.12;98227.20;1643993;87;21047;-83
2022/09/15 02:40:15;;;;;;;10.70;3.17;;;;;;;19.36;69.09;98218.32;1643469;87;21563;-81
2022/09/15 02:42:55;;;;;;;5.65;2.90;;;;;;;19.35;69.80;98220.61;1643121;87;21018;-82
2022/09/15 02:45:23;;;;;;;7.00;2.90;;;;;;;19.34;69.24;98217.14;1648419;87;21533;-82
2022/09/15 02:47:50;;;;;;;5.87;2.70;;;;;;;19.35;69.25;98213.53;1641751;86;20992;-82
2022/09/15 02:50:19;;;;;;;8.75;3.10;;;;;;;19.37;69.43;98208.98;1653832;86;21514;-79
2022/09/15 02:52:46;;;;;;;8.38;2.90;;;;;;;19.39;69.37;98199.66;1652660;87;21027;-81
2022/09/15 02:55:13;;;;;;;12.85;3.33;;;;;;;19.40;69.51;98206.14;1631017;87;20988;-80
2022/09/15 02:57:39;;;;;;;7.20;2.70;;;;;;;19.42;69.75;98195.48;1640845;86;20961;-82
2022/09/15 03:00:15;;;;;;;10.82;3.45;;;;;;;19.44;69.96;98189.62;1636269;87;20952;-82
2022/09/15 03:02:45;;;;;;;11.38;3.40;;;;;;;19.45;70.18;98193.92;1642992;86;21012;-81
2022/09/15 03:05:15;;;;;;;9.40;3.37;;;;;;;19.48;70.18;98184.47;1655960;87;21491;-81
2022/09/15 03:07:42;;;;;;;6.87;3.35;;;;;;;19.51;70.21;98186.86;1645936;87;20990;-82
2022/09/15 03:10:11;;;;;;;10.23;3.40;;;;;;;19.54;70.27;98181.36;1645147;87;21522;-85
2022/09/15 03:12:45;;;;;;;10.43;3.65;;;;;;;19.58;70.09;98179.34;1644261;87;21000;-83
2022/09/15 03:15:15;;;;;;;10.43;3.87;;;;;;;19.60;69.96;98178.74;1645636;87;21532;-81
2022/09/15 03:17:45;;;;;;;10.28;3.37;;;;;;;19.60;69.89;98173.47;1655282;85;21055;-81
2022/09/15 03:20:16;;;;;;;7.60;3.20;;;;;;;19.61;69.94;98174.65;1645856;87;21026;-80
2022/09/15 03:22:43;;;;;;;6.08;3.40;;;;;;;19.62;69.94;98172.39;1644351;87;21000;-81
2022/09/15 03:25:10;;;;;;;13.58;3.52;;;;;;;19.60;69.81;98168.20;1642115;86;21012;-81
2022/09/15 03:27:37;;;;;;;19.05;3.92;;;;;;;19.58;69.99;98161.72;1645861;87;21012;-81
2022/09/15 03:30:06;;;;;;;11.65;4.15;;;;;;;19.57;69.72;98169.25;1649130;87;21000;-81
2022/09/15 03:32:33;;;;;;;8.80;3.22;;;;;;;19.55;69.44;98161.94;1646261;87;21028;-81
2022/09/15 03:35:00;;;;;;;10.48;3.70;;;;;;;19.50;69.68;98166.74;1645630;87;21062;-79
2022/09/15 03:37:26;;;;;;;12.30;3.47;;;;;;;19.45;70.04;98164.44;1649133;87;20980;-81
2022/09/15 03:39:53;;;;;;;15.23;3.77;;;;;;;19.43;69.97;98164.20;1639092;87;21026;-82
2022/09/15 03:42:20;;;;;;;8.90;3.35;;;;;;;19.40;70.04;98156.55;1649158;87;20974;-81
2022/09/15 03:44:47;;;;;;;7.83;3.60;;;;;;;19.38;69.76;98158.46;1645530;87;21508;-81
2022/09/15 03:47:13;;;;;;;8.33;3.70;;;;;;;19.33;69.92;98143.47;1643592;86;21012;-81
2022/09/15 03:49:40;;;;;;;12.55;4.03;;;;;;;19.31;70.48;98140.11;1649366;87;21078;-83
2022/09/15 03:52:07;;;;;;;7.40;3.05;;;;;;;19.28;70.36;98130.16;1653750;87;20999;-82
2022/09/15 03:54:34;;;;;;;12.60;3.37;;;;;;;19.28;70.52;98127.53;1656009;87;21550;-81
2022/09/15 03:57:01;;;;;;;10.60;2.98;;;;;;;19.29;70.68;98129.67;1625964;88;20976;-84
2022/09/15 03:59:27;;;;;;;10.05;4.30;;;;;;;19.28;70.83;98119.63;1645749;86;21066;-81
2022/09/15 04:01:54;;;;;;;10.20;3.30;;;;;;;19.29;71.21;98121.77;1650018;87;21006;-82
2022/09/15 04:04:20;;;;;;;10.43;3.15;;;;;;;19.31;71.49;98120.34;1655786;87;21066;-81
2022/09/15 04:06:47;;;;;;;10.05;3.80;;;;;;;19.29;71.54;98119.13;1644980;87;21065;-81
2022/09/15 04:09:14;;;;;;;7.40;3.42;;;;;;;19.32;71.60;98120.69;1640574;87;20973;-81
2022/09/15 04:11:41;;;;;;;7.08;3.08;;;;;;;19.32;71.70;98114.09;1636693;87;21020;-84
2022/09/15 04:14:08;;;;;;;9.38;3.25;;;;;;;19.35;71.75;98108.61;1640681;87;21010;-81
2022/09/15 04:16:34;;;;;;;13.05;4.80;;;;;;;19.38;71.88;98105.75;1626246;87;21395;-81
2022/09/15 04:19:01;;;;;;;14.40;3.92;;;;;;;19.43;71.83;98108.85;1644504;87;21023;-85
2022/09/15 04:21:30;;;;;;;11.70;3.92;;;;;;;19.46;71.48;98102.04;1641038;86;21075;-79
2022/09/15 04:23:56;;;;;;;7.22;3.95;;;;;;;19.46;71.25;98088.86;1636816;87;20992;-81
2022/09/15 04:26:30;;;;;;;14.53;4.12;;;;;;;19.45;71.22;98078.77;1631669;86;21051;-84
2022/09/15 04:28:58;;;;;;;9.60;4.30;;;;;;;19.44;71.19;98085.51;1635778;87;21008;-81
2022/09/15 04:31:24;;;;;;;15.30;5.15;;;;;;;19.43;71.09;98091.72;1640181;87;21091;-84
2022/09/15 04:33:53;;;;;;;12.93;4.28;;;;;;;19.42;71.45;98099.28;1629875;87;21012;-84
2022/09/15 04:36:23;;;;;;;12.45;3.95;;;;;;;19.40;72.08;98095.92;1645838;87;21433;-82
2022/09/15 04:38:50;;;;;;;16.27;4.92;;;;;;;19.40;71.25;98097.25;1628505;86;21005;-84
2022/09/15 04:41:18;;;;;;;9.80;4.00;;;;;;;19.39;71.27;98100.34;1634109;86;21002;-83
2022/09/15 04:43:45;;;;;;;10.58;4.53;;;;;;;19.38;71.43;98096.04;1633287;86;20981;-80
2022/09/15 04:46:13;;;;;;;14.43;4.58;;;;;;;19.39;71.64;98103.45;1630714;86;20992;-82
2022/09/15 04:48:41;;;;;;;7.60;3.85;;;;;;;19.38;71.34;98101.31;1639062;86;21043;-84
2022/09/15 04:51:12;;;;;;;15.05;5.60;;;;;;;19.38;71.27;98110.53;1632548;87;21008;-83
2022/09/15 04:53:39;;;;;;;14.78;5.22;;;;;;;19.39;71.12;98113.52;1638024;86;21801;-81
2022/09/15 04:56:10;;;;;;;11.78;5.03;;;;;;;19.39;70.92;98110.87;1642392;86;21031;-85
2022/09/15 04:58:43;;;;;;;18.95;4.47;;;;;;;19.38;71.08;98111.02;1635552;86;21150;-85
2022/09/15 05:01:15;;;;;;;;;;;;;;;19.38;71.20;98109.70;1645119;86;21019;-88
2022/09/15 05:03:45;;;;;;;12.90;4.53;;;;;;;19.38;71.28;98115.80;1639890;86;20148;-85
2022/09/15 05:06:16;;;;;;;10.18;3.42;;;;;;;19.40;71.00;98116.52;1644950;87;21003;-84
2022/09/15 05:08:49;;;;;;;24.07;4.08;;;;;;;19.44;71.07;98119.28;1646337;86;21034;-84
2022/09/15 05:11:16;;;;;;;;;;;;;;;19.49;71.66;98118.92;1635687;87;21012;-84
2022/09/15 05:13:43;;;;;;;16.97;5.47;;;;;;;19.54;71.54;98130.45;1646950;86;20185;-83
2022/09/15 05:16:17;;;;;;;13.38;4.05;;;;;;;19.60;71.43;98124.21;1646934;86;21049;-84
2022/09/15 05:18:45;;;;;;;12.95;3.98;;;;;;;19.64;71.54;98123.02;1645700;86;20990;-84
2022/09/15 05:21:14;;;;;;;9.90;4.30;;;;;;;19.72;71.52;98129.05;1626432;87;20991;-86
2022/09/15 05:23:41;;;;;;;19.25;4.83;;;;;;;19.77;71.42;98122.08;1647387;87;21118;-84
2022/09/15 05:26:12;;;;;;;20.85;4.70;;;;;;;19.82;71.42;98123.41;1645342;87;21020;-82
2022/09/15 05:28:41;;;;;;;12.95;4.78;;;;;;;19.87;71.28;98130.95;1645222;87;21047;-80
2022/09/15 05:31:19;;;;;;;16.40;5.12;;;;;;;19.92;71.01;98116.92;1631953;87;21034;-81
2022/09/15 05:33:48;;;;;;;14.40;4.97;;;;;;;19.99;70.79;98122.05;1627612;87;21015;-80
2022/09/15 05:36:16;;;;;;;13.22;4.00;;;;;;;20.09;70.52;98116.06;1637311;86;21026;-80
2022/09/15 05:38:43;;;;;;;13.15;3.60;;;;;;;20.23;69.90;98117.11;1644593;87;21524;-82
2022/09/15 05:41:16;;;;;;;10.80;2.98;;;;;;;20.37;69.66;98122.14;1643222;87;21082;-82
2022/09/15 05:43:46;;;;;;;8.78;2.47;;;;;;;20.58;68.68;98106.83;1640789;87;21469;-80
2022/09/15 05:46:16;;;;;;;8.35;2.50;;;;;;;20.77;68.41;98122.88;1629641;87;21070;-82
2022/09/15 05:48:44;;;;;;;8.83;2.60;;;;;;;21.01;67.55;98123.95;1642249;87;21000;-80
2022/09/15 05:51:11;;;;;;;6.58;2.40;;;;;;;21.29;65.59;98126.92;1642235;87;21011;-80
2022/09/15 05:53:39;;;;;;;9.35;2.10;;;;;;;21.53;64.90;98115.27;1629311;87;20981;-83
2022/09/15 05:56:10;;;;;;;8.78;2.15;;;;;;;21.73;64.72;98116.19;1633073;87;22020;-81
2022/09/15 05:58:40;;;;;;;5.90;2.15;;;;;;;21.93;63.73;98115.77;1631378;86;21012;-81
2022/09/15 06:01:23;;;;;;;3.80;1.80;;;;;;;22.13;61.45;98129.41;1641818;86;21030;-81
2022/09/15 06:03:51;;;;;;;6.62;2.67;;;;;;;22.36;58.16;98123.45;1637968;86;21552;-84
2022/09/15 06:06:18;;;;;;;9.15;2.20;;;;;;;22.58;59.53;98136.92;1635077;86;21030;-85
2022/09/15 06:08:48;;;;;;;6.62;2.45;;;;;;;22.73;58.33;98140.48;1607813;86;20974;-81
2022/09/15 06:11:20;;;;;;;13.80;2.30;;;;;;;22.86;59.05;98137.08;1598546;88;20962;-81
2022/09/15 06:13:48;;;;;;;8.60;1.90;;;;;;;23.01;58.23;98138.80;1605747;88;21539;-80
2022/09/15 06:16:19;;;;;;;5.03;1.82;;;;;;;23.10;56.59;98147.28;1577178;90;21005;-80
2022/09/15 06:18:48;;;;;;;7.53;2.30;;;;;;;23.19;56.24;98139.78;1573255;89;21111;-80
2022/09/15 06:21:18;;;;;;;6.80;2.12;;;;;;;23.28;56.02;98150.52;1575117;90;21020;-80
2022/09/15 06:23:45;;;;;;;8.50;2.02;;;;;;;23.37;56.65;98152.33;1565377;90;21107;-84
2022/09/15 06:26:18;;;;;;;8.65;2.12;;;;;;;23.42;55.66;98146.12;1574699;90;20984;-82
2022/09/15 06:28:56;;;;;;;6.58;2.20;;;;;;;23.46;56.16;98139.54;1577636;91;21001;-81
2022/09/15 06:31:25;;;;;;;9.95;2.85;;;;;;;23.51;56.29;98153.69;1594663;88;21002;-81
2022/09/15 06:33:54;;;;;;;6.10;2.60;;;;;;;23.55;55.88;98166.52;1592560;88;21008;-80
2022/09/15 06:36:25;;;;;;;10.93;2.40;;;;;;;23.57;55.89;98161.08;1603403;88;22058;-85
2022/09/15 06:38:52;;;;;;;8.63;2.58;;;;;;;23.58;56.26;98162.77;1573830;90;21007;-80
2022/09/15 06:41:19;;;;;;;6.92;2.60;;;;;;;23.54;55.36;98173.31;1574816;90;21012;-80
2022/09/15 06:43:47;;;;;;;8.95;2.40;;;;;;;23.58;55.61;98187.97;1598519;88;21057;-80
2022/09/15 06:46:18;;;;;;;4.90;2.17;;;;;;;23.58;55.98;98175.53;1591146;88;20973;-81
2022/09/15 06:48:45;;;;;;;5.12;2.20;;;;;;;23.60;56.27;98185.50;1591105;88;21019;-80
2022/09/15 06:51:13;;;;;;;6.92;2.55;;;;;;;23.65;55.47;98204.97;1594983;88;21112;-81
2022/09/15 06:53:40;;;;;;;5.15;2.08;;;;;;;23.72;56.21;98219.84;1599342;88;21121;-80
2022/09/15 06:56:14;;;;;;;10.00;2.10;;;;;;;23.75;54.99;98227.50;1602446;88;20996;-79
2022/09/15 06:58:42;;;;;;;7.67;2.17;;;;;;;23.74;54.82;98225.34;1591324;88;21013;-80
2022/09/15 07:01:19;;;;;;;14.70;1.92;;;;;;;23.75;54.89;98224.84;1585186;90;21021;-79
2022/09/15 07:03:46;;;;;;;7.10;2.00;;;;;;;23.75;55.11;98236.79;1585791;88;21059;-80
2022/09/15 07:06:13;;;;;;;8.28;2.35;;;;;;;23.76;55.03;98242.46;1571872;91;20996;-78
2022/09/15 07:08:41;;;;;;;7.10;2.37;;;;;;;23.75;55.52;98244.25;1627269;87;20993;-79
2022/09/15 07:11:09;;;;;;;7.80;1.80;;;;;;;23.78;55.32;98244.52;1639863;87;21018;-79
2022/09/15 07:13:37;;;;;;;6.08;2.10;;;;;;;23.77;54.98;98237.02;1640544;87;20994;-79
2022/09/15 07:16:07;;;;;;;5.37;1.90;;;;;;;23.76;54.85;98239.80;1632196;87;20998;-80
2022/09/15 07:18:34;;;;;;;4.22;1.87;;;;;;;23.78;55.50;98245.84;1604082;89;21009;-79
2022/09/15 07:21:08;;;;;;;9.95;2.50;;;;;;;23.74;54.82;98250.55;1630575;87;21050;-80
2022/09/15 07:23:35;;;;;;;7.95;1.95;;;;;;;23.73;55.35;98250.19;1631837;87;20991;-79
2022/09/15 07:26:09;;;;;;;5.72;1.90;;;;;;;23.76;55.60;98256.56;1634239;86;20973;-78
2022/09/15 07:28:37;;;;;;;10.43;1.95;;;;;;;23.81;55.84;98264.11;1639080;87;20995;-81
2022/09/15 07:31:06;;;;;;;5.28;2.05;;;;;;;23.77;56.00;98250.28;1627757;87;21558;-80
2022/09/15 07:33:34;;;;;;;8.23;2.00;;;;;;;23.81;56.38;98257.48;1645988;87;21043;-80
2022/09/15 07:36:02;;;;;;;11.95;2.50;;;;;;;23.85;56.51;98254.05;1633152;87;21042;-79
2022/09/15 07:38:29;;;;;;;6.20;2.42;;;;;;;23.87;56.19;98260.88;1636390;87;21028;-79
2022/09/15 07:41:05;;;;;;;7.58;2.40;;;;;;;23.91;56.37;98263.59;1634077;87;21582;-78
2022/09/15 07:43:32;;;;;;;8.63;2.27;;;;;;;24.01;56.59;98270.22;1641026;87;20979;-78
2022/09/15 07:46:00;;;;;;;7.33;1.90;;;;;;;24.09;56.52;98280.11;1629818;87;21079;-78
2022/09/15 07:48:27;;;;;;;9.20;2.27;;;;;;;24.18;56.35;98272.63;1631757;87;20999;-80
2022/09/15 07:50:54;;;;;;;8.00;1.98;;;;;;;24.18;56.48;98272.63;1642348;87;21605;-80
2022/09/15 07:53:20;;;;;;;3.80;2.00;;;;;;;24.22;56.48;98270.02;1642726;87;21506;-79
2022/09/15 07:55:54;;;;;;;8.40;2.10;;;;;;;24.26;55.91;98283.35;1646222;86;21005;-78
2022/09/15 07:58:21;;;;;;;6.97;1.77;;;;;;;24.27;56.08;98279.70;1639607;87;21912;-80
2022/09/15 08:00:48;;;;;;;15.38;2.30;;;;;;;24.36;56.17;98289.97;1639561;86;21036;-80
2022/09/15 08:03:15;;;;;;;8.08;1.72;;;;;;;24.40;56.09;98294.00;1639708;87;21006;-80
2022/09/15 08:05:42;;;;;;;5.20;2.22;;;;;;;24.38;56.24;98291.48;1642219;87;21519;-80
2022/09/15 08:08:08;;;;;;;5.60;2.05;;;;;;;24.42;56.05;98294.19;1642383;87;21018;-79
2022/09/15 08:10:38;;;;;;;12.20;2.75;;;;;;;24.44;55.87;98297.20;1645540;87;21026;-80
2022/09/15 08:13:05;;;;;;;7.25;2.40;;;;;;;24.40;56.07;98308.11;1638691;87;20979;-78
2022/09/15 08:15:36;;;;;;;7.90;2.50;;;;;;;24.33;56.12;98311.02;1651219;87;21031;-79
2022/09/15 08:18:04;;;;;;;6.90;2.20;;;;;;;24.29;56.15;98316.75;1644477;87;20937;-80
2022/09/15 08:20:31;;;;;;;5.65;2.12;;;;;;;24.21;56.17;98322.77;1644922;87;20991;-79
2022/09/15 08:22:58;;;;;;;4.28;1.70;;;;;;;24.16;56.21;98315.25;1654577;87;20990;-78
2022/09/15 08:25:25;;;;;;;3.58;1.70;;;;;;;24.15;56.58;98309.61;1643425;87;21133;-79
2022/09/15 08:27:53;;;;;;;4.15;2.10;;;;;;;24.18;56.66;98315.11;1654463;87;20949;-81
2022/09/15 08:30:25;;;;;;;8.73;2.08;;;;;;;24.19;56.53;98322.08;1629344;87;20991;-78
2022/09/15 08:32:54;;;;;;;5.15;2.10;;;;;;;24.18;56.58;98329.72;1651197;87;20975;-79
2022/09/15 08:35:21;;;;;;;4.97;1.98;;;;;;;24.13;56.52;98324.84;1650278;87;21010;-78
2022/09/15 08:37:47;;;;;;;5.90;2.45;;;;;;;24.11;56.63;98326.78;1642699;87;21026;-78
2022/09/15 08:40:22;;;;;;;6.12;2.42;;;;;;;24.03;57.17;98322.67;1643676;87;20986;-81
2022/09/15 08:42:52;;;;;;;7.72;2.27;;;;;;;24.01;57.55;98320.19;1649427;87;21078;-81
2022/09/15 08:45:29;;;;;;;4.10;2.08;;;;;;;24.00;58.00;98327.79;1648671;87;21541;-78
2022/09/15 08:48:00;;;;;;;6.45;2.60;;;;;;;24.11;57.93;98324.63;1656826;87;21044;-79
2022/09/15 08:50:38;;;;;;;12.82;6.12;;;;;;;24.14;57.97;98321.19;1649791;87;20992;-80
2022/09/15 08:53:13;;;;;;;7.12;2.35;;;;;;;24.29;57.63;98330.03;1638104;86;21002;-79
2022/09/15 08:55:51;;;;;;;8.55;2.15;;;;;;;24.34;57.12;98349.87;1647172;86;20967;-79
2022/09/15 08:58:24;;;;;;;7.70;2.83;;;;;;;24.44;56.70;98333.91;1651130;87;20992;-79
2022/09/15 09:01:11;;;;;;;7.80;2.05;;;;;;;24.53;55.88;98330.88;1646071;87;20998;-80
2022/09/15 09:04:06;;;;;;;7.65;1.90;;;;;;;24.70;56.33;98327.46;1654073;87;21018;-79
2022/09/15 09:06:50;;;;;;;5.22;2.05;;;;;;;24.86;54.37;98336.12;1643514;87;21029;-78
2022/09/15 09:09:39;;;;;;;3.62;1.60;;;;;;;25.08;54.95;98332.22;1630881;86;20989;-80
2022/09/15 09:12:29;;;;;;;6.08;1.90;;;;;;;25.13;54.88;98318.00;1619090;88;21014;-79
2022/09/15 09:15:06;;;;;;;6.28;1.72;;;;;;;25.16;54.00;98332.31;1609565;88;20977;-79
2022/09/15 09:18:23;;;;;;;5.87;1.60;;;;;;;25.21;54.48;98322.57;1611084;88;21057;-79
2022/09/15 09:21:13;;;;;;;10.68;1.98;;;;;;;25.22;53.35;98332.23;1619999;88;21003;-81
2022/09/15 09:24:07;;;;;;;7.00;2.00;;;;;;;25.03;53.93;98330.99;1623593;87;21084;-78
2022/09/15 09:26:35;;;;;;;5.78;1.90;;;;;;;24.99;53.61;98343.77;1616903;88;21441;-77
2022/09/15 09:29:26;;;;;;;7.30;2.02;;;;;;;24.93;53.18;98333.70;1624224;88;20985;-81
2022/09/15 09:31:55;;;;;;;5.65;1.90;;;;;;;24.85;53.83;98342.45;1619214;87;21004;-79
2022/09/15 09:34:36;;;;;;;7.78;2.10;;;;;;;24.84;54.04;98352.72;1620577;88;21021;-79
2022/09/15 09:37:15;;;;;;;7.37;2.50;;;;;;;24.70;54.15;98342.08;1607507;88;21508;-79
2022/09/15 09:39:41;;;;;;;9.00;2.17;;;;;;;24.73;54.27;98343.59;1613601;88;21044;-80
2022/09/15 09:42:15;;;;;;;3.40;1.77;;;;;;;24.57;53.49;98341.09;1616420;88;21049;-79
2022/09/15 09:44:42;;;;;;;8.15;2.05;;;;;;;24.51;53.93;98347.00;1620938;88;21548;-79
2022/09/15 09:47:09;;;;;;;6.20;1.70;;;;;;;24.44;53.86;98335.23;1616072;88;21046;-80
2022/09/15 09:49:48;;;;;;;5.53;2.25;;;;;;;24.54;54.19;98347.19;1597370;88;21481;-80
2022/09/15 09:52:38;;;;;;;5.83;1.80;;;;;;;24.55;54.23;98347.05;1617256;88;21007;-78
2022/09/15 09:55:23;;;;;;;7.67;1.60;;;;;;;24.64;54.29;98356.45;1618874;88;20953;-78
2022/09/15 09:57:50;;;;;;;6.70;1.90;;;;;;;24.69;54.24;98349.72;1612886;88;21078;-78
2022/09/15 10:00:35;;;;;;;4.05;1.60;;;;;;;24.78;54.17;98344.84;1615682;88;21022;-79
2022/09/15 10:03:22;;;;;;;4.30;1.85;;;;;;;24.77;53.62;98351.16;1611931;88;21495;-79
2022/09/15 10:06:08;;;;;;;9.13;2.35;;;;;;;24.76;53.75;98352.63;1620641;88;21031;-78
2022/09/15 10:08:36;;;;;;;7.40;1.70;;;;;;;24.90;54.16;98357.95;1626451;86;21050;-80
2022/09/15 10:11:06;;;;;;;7.10;1.92;;;;;;;25.07;54.03;98354.97;1636761;87;20990;-78
2022/09/15 10:13:35;;;;;;;6.55;2.33;;;;;;;25.23;54.05;98361.86;1607610;87;21051;-79
2022/09/15 10:16:05;;;;;;;4.83;1.70;;;;;;;25.30;53.51;98352.27;1637609;87;20999;-78
2022/09/15 10:18:37;;;;;;;5.37;2.42;;;;;;;25.30;52.85;98346.95;1633767;87;21029;-78
2022/09/15 10:21:07;;;;;;;5.30;1.50;;;;;;;25.46;52.95;98347.61;1638258;86;21030;-78
2022/09/15 10:23:34;;;;;;;6.65;1.90;;;;;;;25.42;52.13;98351.56;1646363;87;21022;-79
2022/09/15 10:26:23;;;;;;;6.45;1.75;;;;;;;25.36;52.39;98350.84;1638481;86;21006;-78
2022/09/15 10:29:15;;;;;;;5.30;1.60;;;;;;;25.51;52.44;98359.98;1625429;87;21094;-79
2022/09/15 10:31:43;;;;;;;8.70;1.98;;;;;;;25.55;51.67;98348.05;1581279;89;21021;-78
2022/09/15 10:34:30;;;;;;;6.60;1.80;;;;;;;25.57;52.54;98353.22;1622297;86;21004;-79
2022/09/15 10:37:14;;;;;;;5.20;1.60;;;;;;;25.49;51.80;98360.63;1632255;87;21509;-80
2022/09/15 10:39:54;;;;;;;7.55;2.02;;;;;;;25.64;52.27;98338.80;1621260;87;21008;-80
2022/09/15 10:42:52;;;;;;;4.87;1.82;;;;;;;25.65;52.26;98349.80;1632776;87;21064;-81
2022/09/15 10:45:32;;;;;;;9.20;2.10;;;;;;;25.70;52.14;98339.02;1641958;87;21008;-79
2022/09/15 10:48:16;;;;;;;5.55;2.30;;;;;;;25.88;52.36;98338.99;1635319;87;21042;-77
2022/09/15 10:50:54;;;;;;;5.87;1.80;;;;;;;25.85;51.09;98337.98;1627667;87;21024;-79
2022/09/15 10:53:57;;;;;;;5.90;1.70;;;;;;;26.09;51.31;98323.22;1636646;87;21538;-78
2022/09/15 10:56:35;;;;;;;5.83;1.65;;;;;;;26.04;50.92;98325.50;1576189;87;21518;-80
2022/09/15 10:59:32;;;;;;;4.87;1.65;;;;;;;25.96;51.16;98323.14;1635540;87;21008;-80
2022/09/15 11:02:28;;;;;;;4.28;1.42;;;;;;;25.99;51.21;98332.13;1621610;87;21069;-79
2022/09/15 11:05:04;;;;;;;4.90;1.52;;;;;;;26.03;50.26;98322.52;1645740;87;21059;-80
2022/09/15 11:07:45;;;;;;;3.77;1.72;;;;;;;26.07;51.07;98322.54;1643919;86;21012;-79
2022/09/15 11:10:23;;;;;;;5.00;1.60;;;;;;;26.11;51.12;98321.23;1635127;87;21030;-81
2022/09/15 11:13:26;;;;;;;5.70;1.35;;;;;;;26.28;51.23;98316.36;1627235;87;21022;-79
2022/09/15 11:16:25;;;;;;;6.03;1.52;;;;;;;26.55;51.11;98311.83;1617629;88;21052;-79
2022/09/15 11:19:06;;;;;;;4.15;1.37;;;;;;;26.78;49.23;98312.96;1629935;87;21559;-77
2022/09/15 11:21:50;;;;;;;3.95;1.55;;;;;;;26.87;49.68;98303.66;1643272;86;21091;-78
2022/09/15 11:24:40;;;;;;;4.75;1.60;;;;;;;27.14;48.84;98298.57;1636337;86;21514;-79
2022/09/15 11:27:35;;;;;;;6.75;1.62;;;;;;;27.30;48.61;98293.80;1634143;87;21059;-78
2022/09/15 11:30:23;;;;;;;7.60;1.82;;;;;;;27.29;48.08;98298.78;1638249;87;21562;-79
2022/09/15 11:33:14;;;;;;;5.28;1.70;;;;;;;27.19;47.58;98298.39;1615979;88;21032;-80
2022/09/15 11:36:08;;;;;;;6.05;1.90;;;;;;;27.33;47.77;98290.27;1636106;87;21002;-78
2022/09/15 11:39:26;;;;;;;4.65;1.80;;;;;;;27.14;47.90;98290.06;1629933;87;21067;-78
2022/09/15 11:42:07;;;;;;;3.87;1.70;;;;;;;27.01;47.81;98285.69;1641920;87;21046;-79
2022/09/15 11:44:38;;;;;;;7.10;1.60;;;;;;;26.98;47.85;98280.19;1639057;87;21051;-79
2022/09/15 11:47:30;;;;;;;8.08;2.00;;;;;;;26.98;48.15;98268.19;1639161;87;21005;-79
2022/09/15 11:50:23;;;;;;;8.20;1.85;;;;;;;26.83;48.46;98278.31;1643475;87;20987;-79
2022/09/15 11:53:26;;;;;;;6.25;1.77;;;;;;;26.71;48.51;98277.77;1639669;87;21044;-79
2022/09/15 11:56:10;;;;;;;4.23;1.57;;;;;;;26.54;48.91;98265.69;1598627;89;21028;-79
2022/09/15 11:58:57;;;;;;;6.37;1.90;;;;;;;26.52;49.15;98257.02;1619333;87;21040;-81
2022/09/15 12:01:44;;;;;;;5.50;1.60;;;;;;;26.59;49.33;98270.05;1637146;87;21054;-79
2022/09/15 12:04:31;;;;;;;4.90;2.00;;;;;;;26.69;49.29;98255.77;1639618;87;21020;-78
2022/09/15 12:07:18;;;;;;;4.00;1.80;;;;;;;26.74;49.32;98263.63;1639486;87;21014;-79